createdAt,value
2023-03-12T00:00:55.233Z,9.23
2023-03-12T00:03:23.976Z,8.48
2023-03-12T00:05:51.373Z,8.48
2023-03-12T00:08:18.766Z,9.23
2023-03-12T00:10:46.453Z,8.80
2023-03-12T00:13:13.840Z,7.12
2023-03-12T00:15:41.270Z,7.45
2023-03-12T00:18:08.984Z,7.37
2023-03-12T00:20:36.347Z,7.53
2023-03-12T00:23:03.941Z,7.22
2023-03-12T00:25:31.704Z,6.90
2023-03-12T00:27:59.121Z,6.70
2023-03-12T00:30:28.348Z,7.10
2023-03-12T00:32:56.338Z,7.53
2023-03-12T00:35:23.743Z,6.30
2023-03-12T00:37:51.141Z,7.37
2023-03-12T00:40:18.986Z,7.85
2023-03-12T00:42:46.380Z,6.37
2023-03-12T00:45:13.809Z,8.32
2023-03-12T00:47:41.720Z,7.05
2023-03-12T00:50:09.704Z,9.27
2023-03-12T00:52:37.077Z,8.57
2023-03-12T00:55:05.170Z,8.35
2023-03-12T00:57:32.570Z,8.60
2023-03-12T01:00:00.014Z,6.15
2023-03-12T01:02:27.727Z,7.72
2023-03-12T01:04:55.105Z,7.47
2023-03-12T01:07:22.894Z,8.23
2023-03-12T01:09:50.535Z,7.65
2023-03-12T01:12:18.436Z,8.73
2023-03-12T01:14:45.827Z,8.43
2023-03-12T01:17:13.534Z,7.35
2023-03-12T01:19:40.918Z,8.48
2023-03-12T01:22:08.337Z,8.80
2023-03-12T01:24:36.006Z,8.18
2023-03-12T01:27:03.999Z,9.65
2023-03-12T01:29:31.421Z,8.13
2023-03-12T01:31:59.354Z,8.43
2023-03-12T01:34:26.752Z,9.95
2023-03-12T01:36:55.410Z,7.70
2023-03-12T01:39:23.123Z,8.88
2023-03-12T01:41:50.508Z,10.23
2023-03-12T01:44:17.946Z,10.45
2023-03-12T01:46:48.467Z,7.28
2023-03-12T01:49:18.959Z,8.80
2023-03-12T01:52:03.446Z,10.00
2023-03-12T01:54:36.595Z,7.90
2023-03-12T01:57:06.837Z,8.93
2023-03-12T01:59:39.600Z,9.93
2023-03-12T02:02:08.171Z,9.95
2023-03-12T02:04:37.096Z,8.52
2023-03-12T02:07:13.501Z,8.73
2023-03-12T02:09:44.300Z,8.68
2023-03-12T02:12:12.099Z,7.80
2023-03-12T02:14:39.729Z,8.50
2023-03-12T02:17:07.592Z,8.80
2023-03-12T02:19:52.150Z,11.30
2023-03-12T02:22:21.109Z,9.55
2023-03-12T02:24:53.239Z,11.68
2023-03-12T02:27:21.570Z,11.07
2023-03-12T02:29:49.733Z,9.55
2023-03-12T02:32:23.499Z,10.82
2023-03-12T02:34:51.190Z,11.05
2023-03-12T02:37:19.648Z,11.70
2023-03-12T02:40:06.049Z,10.95
2023-03-12T02:42:34.204Z,10.50
2023-03-12T02:45:02.305Z,12.18
2023-03-12T02:47:29.780Z,12.93
2023-03-12T02:49:57.451Z,11.35
2023-03-12T02:52:24.935Z,9.93
2023-03-12T02:54:52.384Z,12.05
2023-03-12T02:57:20.073Z,11.52
2023-03-12T02:59:47.491Z,12.63
2023-03-12T03:02:15.484Z,11.12
2023-03-12T03:04:43.483Z,12.13
2023-03-12T03:07:10.856Z,11.80
2023-03-12T03:09:38.300Z,11.55
2023-03-12T03:12:06.296Z,13.82
2023-03-12T03:14:34.006Z,13.75
2023-03-12T03:17:01.430Z,14.10
2023-03-12T03:19:29.124Z,14.40
2023-03-12T03:21:56.525Z,13.32
2023-03-12T03:24:23.943Z,13.15
2023-03-12T03:26:51.768Z,13.62
2023-03-12T03:29:19.338Z,13.32
2023-03-12T03:31:46.761Z,13.13
2023-03-12T03:34:14.468Z,13.50
2023-03-12T03:36:41.907Z,13.50
2023-03-12T03:39:09.714Z,12.75
2023-03-12T03:41:37.464Z,13.13
2023-03-12T03:44:05.479Z,16.48
2023-03-12T03:46:38.516Z,13.10
2023-03-12T03:49:06.697Z,13.70
2023-03-12T03:51:34.489Z,12.43
2023-03-12T03:54:02.310Z,15.70
2023-03-12T03:56:30.187Z,13.07
2023-03-12T03:58:58.350Z,12.63
2023-03-12T04:01:26.283Z,12.40
2023-03-12T04:03:55.270Z,12.52
2023-03-12T04:06:23.137Z,13.80
2023-03-12T04:08:50.908Z,12.10
2023-03-12T04:11:20.489Z,14.52
2023-03-12T04:13:48.377Z,14.68
2023-03-12T04:16:16.615Z,12.93
2023-03-12T04:18:45.107Z,14.18
2023-03-12T04:21:13.733Z,15.07
2023-03-12T04:23:41.840Z,14.18
2023-03-12T04:26:09.789Z,14.38
2023-03-12T04:28:37.747Z,12.73
2023-03-12T04:31:07.583Z,14.13
2023-03-12T04:33:37.052Z,15.77
2023-03-12T04:36:05.658Z,15.95
2023-03-12T04:38:33.593Z,15.25
2023-03-12T04:41:02.507Z,15.63
2023-03-12T04:43:30.913Z,16.83
2023-03-12T04:45:58.867Z,16.10
2023-03-12T04:48:27.052Z,16.52
2023-03-12T04:50:55.012Z,18.17
2023-03-12T04:53:23.113Z,16.62
2023-03-12T04:55:52.417Z,14.25
2023-03-12T04:58:20.719Z,15.40
2023-03-12T05:00:49.462Z,17.50
2023-03-12T05:03:18.182Z,15.60
2023-03-12T05:05:45.858Z,15.75
2023-03-12T05:08:13.281Z,13.93
2023-03-12T05:10:41.083Z,17.02
2023-03-12T05:13:19.678Z,15.05
2023-03-12T05:15:50.681Z,14.63
2023-03-12T05:18:20.574Z,15.90
2023-03-12T05:20:58.530Z,17.12
2023-03-12T05:23:26.037Z,12.88
2023-03-12T05:25:53.857Z,14.77
2023-03-12T05:28:21.910Z,14.95
2023-03-12T05:30:49.511Z,15.27
2023-03-12T05:33:17.222Z,16.17
2023-03-12T05:35:44.722Z,16.70
2023-03-12T05:38:12.141Z,15.32
2023-03-12T05:40:39.806Z,14.18
2023-03-12T05:43:07.229Z,15.90
2023-03-12T05:45:34.749Z,18.23
2023-03-12T05:48:03.078Z,16.05
2023-03-12T05:50:30.712Z,14.95
2023-03-12T05:52:58.156Z,17.37
2023-03-12T05:55:25.894Z,14.27
2023-03-12T05:57:54.220Z,15.05
2023-03-12T06:00:22.010Z,23.58
2023-03-12T06:02:51.217Z,18.48
2023-03-12T06:05:19.628Z,17.77
2023-03-12T06:07:47.083Z,16.40
2023-03-12T06:10:14.923Z,17.98
2023-03-12T06:12:42.442Z,17.70
2023-03-12T06:15:10.574Z,15.77
2023-03-12T06:17:38.484Z,15.63
2023-03-12T06:20:06.886Z,15.85
2023-03-12T06:22:34.652Z,15.90
2023-03-12T06:25:02.655Z,17.27
2023-03-12T06:27:30.101Z,15.13
2023-03-12T06:29:57.590Z,17.75
2023-03-12T06:32:26.110Z,14.82
2023-03-12T06:34:53.647Z,15.50
2023-03-12T06:37:21.089Z,16.48
2023-03-12T06:39:49.051Z,16.30
2023-03-12T06:42:19.653Z,14.77
2023-03-12T06:44:47.046Z,15.88
2023-03-12T06:47:17.432Z,15.75
2023-03-12T06:49:45.084Z,15.63
2023-03-12T06:52:12.520Z,17.50
2023-03-12T06:54:40.202Z,15.07
2023-03-12T06:57:07.623Z,14.93
2023-03-12T06:59:35.029Z,14.90
2023-03-12T07:02:02.856Z,14.30
2023-03-12T07:04:30.288Z,16.52
2023-03-12T07:06:57.690Z,15.60
2023-03-12T07:09:25.352Z,16.85
2023-03-12T07:11:52.712Z,15.45
2023-03-12T07:14:21.342Z,13.88
2023-03-12T07:16:49.043Z,15.90
2023-03-12T07:19:16.638Z,15.07
2023-03-12T07:21:44.028Z,14.82
2023-03-12T07:24:11.720Z,15.85
2023-03-12T07:26:40.033Z,14.80
2023-03-12T07:29:07.434Z,15.57
2023-03-12T07:31:35.218Z,13.38
2023-03-12T07:34:03.313Z,13.85
2023-03-12T07:36:31.030Z,12.88
2023-03-12T07:38:58.824Z,13.85
2023-03-12T07:41:26.220Z,13.40
2023-03-12T07:43:53.645Z,13.13
2023-03-12T07:46:21.674Z,13.77
2023-03-12T07:48:49.105Z,13.85
2023-03-12T07:51:16.558Z,14.48
2023-03-12T07:53:44.379Z,14.00
2023-03-12T07:56:11.934Z,13.27
2023-03-12T07:58:39.563Z,11.57
2023-03-12T08:01:07.593Z,13.27
2023-03-12T08:03:35.845Z,12.30
2023-03-12T08:06:04.554Z,12.63
2023-03-12T08:08:32.507Z,13.32
2023-03-12T08:11:00.634Z,12.00
2023-03-12T08:13:28.204Z,12.63
2023-03-12T08:15:55.865Z,12.43
2023-03-12T08:18:24.720Z,13.62
2023-03-12T08:20:54.134Z,12.13
2023-03-12T08:23:22.294Z,11.60
2023-03-12T08:25:50.877Z,11.43
2023-03-12T08:28:19.153Z,10.45
2023-03-12T08:30:51.915Z,11.35
2023-03-12T08:33:19.904Z,9.95
2023-03-12T08:35:47.586Z,10.80
2023-03-12T08:38:15.222Z,9.25
2023-03-12T08:40:42.954Z,11.60
2023-03-12T08:43:10.653Z,10.00
2023-03-12T08:45:38.093Z,10.32
2023-03-12T08:48:06.711Z,10.70
2023-03-12T08:50:34.071Z,8.80
2023-03-12T08:53:01.445Z,7.35
2023-03-12T08:55:29.140Z,8.25
2023-03-12T08:57:56.933Z,9.07
2023-03-12T09:00:25.145Z,8.98
2023-03-12T09:02:54.209Z,8.27
2023-03-12T09:05:21.740Z,10.50
2023-03-12T09:07:50.125Z,8.73
2023-03-12T09:10:18.291Z,8.65
2023-03-12T09:12:45.698Z,10.80
2023-03-12T09:15:13.186Z,9.15
2023-03-12T09:17:41.411Z,10.25
2023-03-12T09:20:13.984Z,10.15
2023-03-12T09:22:42.983Z,9.85
2023-03-12T09:25:11.273Z,9.82
2023-03-12T09:27:43.388Z,8.07
2023-03-12T09:30:16.862Z,8.18
2023-03-12T09:32:47.503Z,8.88
2023-03-12T09:35:16.043Z,8.52
2023-03-12T09:37:43.853Z,8.43
2023-03-12T09:40:17.094Z,9.75
2023-03-12T09:42:56.241Z,7.35
2023-03-12T09:45:30.757Z,9.27
2023-03-12T09:48:04.604Z,9.02
2023-03-12T09:50:40.712Z,8.38
2023-03-12T09:53:30.255Z,7.70
2023-03-12T09:55:58.918Z,8.30
2023-03-12T09:58:32.569Z,7.22
2023-03-12T10:01:25.744Z,9.50
2023-03-12T10:03:53.348Z,6.60
2023-03-12T10:06:23.425Z,7.45
2023-03-12T10:09:03.418Z,7.20
2023-03-12T10:11:52.524Z,9.35
2023-03-12T10:14:30.002Z,7.60
2023-03-12T10:17:39.969Z,8.27
2023-03-12T10:20:50.499Z,8.55
2023-03-12T10:23:57.315Z,6.82
2023-03-12T10:26:27.123Z,8.55
2023-03-12T10:29:01.084Z,7.37
2023-03-12T10:31:43.222Z,6.65
2023-03-12T10:34:49.502Z,7.68
2023-03-12T10:37:25.964Z,8.00
2023-03-12T10:39:55.671Z,7.15
2023-03-12T10:42:28.340Z,7.25
2023-03-12T10:45:01.519Z,7.95
2023-03-12T10:47:34.732Z,8.82
2023-03-12T10:50:15.065Z,5.97
2023-03-12T10:52:43.510Z,7.97
2023-03-12T10:55:21.143Z,8.55
2023-03-12T10:57:49.122Z,9.35
2023-03-12T11:00:24.852Z,7.30
2023-03-12T11:03:01.100Z,6.62
2023-03-12T11:05:49.038Z,6.20
2023-03-12T11:08:27.245Z,6.20
2023-03-12T11:10:57.192Z,5.68
2023-03-12T11:13:41.752Z,6.25
2023-03-12T11:16:18.924Z,4.85
2023-03-12T11:19:01.577Z,6.70
2023-03-12T11:21:38.331Z,6.15
2023-03-12T11:24:13.680Z,4.35
2023-03-12T11:26:56.857Z,8.05
2023-03-12T11:29:27.523Z,5.50
2023-03-12T11:32:18.625Z,5.68
2023-03-12T11:34:49.456Z,5.65
2023-03-12T11:37:49.304Z,7.47
2023-03-12T11:40:52.087Z,6.72
2023-03-12T11:43:40.230Z,5.30
2023-03-12T11:46:27.694Z,6.75
2023-03-12T11:48:58.526Z,5.43
2023-03-12T11:51:38.638Z,4.62
2023-03-12T11:54:09.080Z,4.72
2023-03-12T11:56:45.591Z,3.30
2023-03-12T11:59:41.666Z,3.58
2023-03-12T12:02:36.402Z,4.37
2023-03-12T12:05:23.445Z,3.87
2023-03-12T12:08:10.024Z,3.80
2023-03-12T12:10:58.956Z,3.85
2023-03-12T12:13:50.956Z,5.00
2023-03-12T12:16:22.338Z,4.05
2023-03-12T12:19:11.726Z,5.12
2023-03-12T12:21:58.140Z,4.37
2023-03-12T12:24:34.287Z,3.40
2023-03-12T12:27:23.857Z,4.75
2023-03-12T12:30:15.284Z,4.25
2023-03-12T12:33:04.040Z,4.70
2023-03-12T12:39:08.604Z,4.32
2023-03-12T12:41:40.368Z,6.50
2023-03-12T12:44:10.834Z,5.45
2023-03-12T12:46:52.714Z,5.22
2023-03-12T12:49:24.797Z,5.47
2023-03-12T12:52:00.294Z,6.05
2023-03-12T12:55:00.895Z,5.72
2023-03-12T12:57:38.641Z,5.43
2023-03-12T13:00:23.452Z,5.32
2023-03-12T13:02:51.972Z,4.90
2023-03-12T13:05:26.279Z,6.25
2023-03-12T13:07:54.489Z,5.68
2023-03-12T13:10:34.726Z,5.95
2023-03-12T13:13:13.597Z,5.12
2023-03-12T13:15:43.916Z,5.75
2023-03-12T13:18:22.984Z,4.80
2023-03-12T13:20:53.492Z,4.87
2023-03-12T13:23:58.860Z,4.80
2023-03-12T13:26:46.693Z,4.93
2023-03-12T13:29:24.137Z,4.47
2023-03-12T13:31:51.949Z,4.68
2023-03-12T13:34:19.777Z,5.37
2023-03-12T13:36:53.926Z,6.05
2023-03-12T13:39:35.986Z,4.95
2023-03-12T13:42:28.239Z,4.70
2023-03-12T13:44:56.557Z,5.32
2023-03-12T13:47:32.300Z,5.80
2023-03-12T13:50:03.842Z,4.82
2023-03-12T13:52:33.060Z,4.43
2023-03-12T13:55:11.995Z,5.20
2023-03-12T13:57:44.301Z,4.53
2023-03-12T14:00:20.918Z,5.32
2023-03-12T14:02:58.719Z,5.43
2023-03-12T14:05:27.590Z,18.35
2023-03-12T14:08:33.228Z,5.70
2023-03-12T14:11:18.617Z,7.15
2023-03-12T14:13:52.093Z,5.03
2023-03-12T14:16:49.631Z,3.95
2023-03-12T14:19:21.539Z,3.37
2023-03-12T14:21:50.784Z,4.12
2023-03-12T14:24:29.954Z,4.57
2023-03-12T14:27:05.547Z,4.03
2023-03-12T14:29:52.761Z,7.55
2023-03-12T14:32:28.494Z,5.97
2023-03-12T14:35:16.990Z,5.68
2023-03-12T14:38:33.845Z,4.57
2023-03-12T14:41:26.306Z,5.13
2023-03-12T14:44:04.484Z,6.93
2023-03-12T14:46:32.834Z,4.75
2023-03-12T14:49:00.766Z,7.60
2023-03-12T14:51:30.777Z,5.30
2023-03-12T14:54:03.481Z,6.20
2023-03-12T14:56:35.161Z,4.70
2023-03-12T14:59:23.370Z,4.60
2023-03-12T15:01:51.735Z,4.32
2023-03-12T15:04:22.332Z,5.22
2023-03-12T15:06:52.850Z,4.47
2023-03-12T15:09:26.977Z,5.50
2023-03-12T15:11:58.623Z,4.15
2023-03-12T15:14:29.536Z,4.80
2023-03-12T15:17:00.355Z,4.87
2023-03-12T15:19:34.364Z,4.78
2023-03-12T15:22:04.173Z,8.48
2023-03-12T15:24:38.608Z,4.15
2023-03-12T15:27:32.369Z,5.35
2023-03-12T15:30:01.568Z,3.92
2023-03-12T15:32:31.982Z,4.22
2023-03-12T15:35:12.710Z,3.90
2023-03-12T15:37:41.496Z,3.58
2023-03-12T15:40:27.801Z,3.80
2023-03-12T15:42:59.094Z,4.87
2023-03-12T15:45:46.202Z,6.22
2023-03-12T15:48:46.070Z,4.15
2023-03-12T15:51:27.095Z,4.35
2023-03-12T15:54:22.100Z,4.55
2023-03-12T15:56:50.244Z,5.93
2023-03-12T15:59:26.511Z,4.37
2023-03-12T16:01:57.228Z,5.43
2023-03-12T16:04:26.549Z,5.80
2023-03-12T16:06:54.777Z,4.20
2023-03-12T16:09:27.536Z,5.75
2023-03-12T16:11:58.361Z,4.78
2023-03-12T16:14:33.226Z,5.50
2023-03-12T16:17:01.633Z,6.40
2023-03-12T16:19:30.820Z,6.05
2023-03-12T16:21:58.876Z,5.18
2023-03-12T16:24:27.673Z,6.85
2023-03-12T16:26:57.765Z,5.15
2023-03-12T16:29:38.507Z,8.00
2023-03-12T16:32:16.553Z,6.03
2023-03-12T16:34:46.071Z,6.15
2023-03-12T16:37:15.542Z,9.48
2023-03-12T16:39:46.785Z,5.90
2023-03-12T16:42:18.017Z,5.90
2023-03-12T16:44:47.371Z,5.60
2023-03-12T16:47:16.416Z,6.57
2023-03-12T16:49:45.935Z,5.93
2023-03-12T16:52:24.860Z,4.22
2023-03-12T16:54:54.647Z,5.15
2023-03-12T16:57:38.421Z,5.82
2023-03-12T17:00:20.307Z,6.40
2023-03-12T17:02:49.694Z,6.30
2023-03-12T17:05:20.252Z,4.35
2023-03-12T17:07:48.216Z,4.47
2023-03-12T17:10:16.965Z,6.37
2023-03-12T17:12:48.195Z,4.45
2023-03-12T17:15:28.614Z,5.97
2023-03-12T17:17:59.592Z,7.97
2023-03-12T17:20:28.305Z,6.75
2023-03-12T17:22:57.360Z,7.40
2023-03-12T17:25:29.098Z,6.78
2023-03-12T17:27:58.294Z,9.10
2023-03-12T17:30:28.639Z,6.68
2023-03-12T17:33:09.901Z,6.68
2023-03-12T17:35:42.478Z,5.97
2023-03-12T17:38:12.279Z,7.43
2023-03-12T17:40:45.903Z,6.28
2023-03-12T17:43:15.780Z,6.47
2023-03-12T17:45:46.266Z,6.55
2023-03-12T17:48:16.464Z,6.53
2023-03-12T17:50:48.339Z,7.97
2023-03-12T17:53:17.076Z,9.80
2023-03-12T17:55:47.958Z,7.70
2023-03-12T17:58:20.854Z,6.95
2023-03-12T18:00:49.680Z,7.00
2023-03-12T18:03:18.850Z,6.50
2023-03-12T18:05:53.052Z,6.15
2023-03-12T18:08:22.443Z,6.93
2023-03-12T18:10:51.493Z,6.40
2023-03-12T18:13:20.407Z,5.55
2023-03-12T18:15:58.523Z,4.97
2023-03-12T18:18:28.688Z,6.00
2023-03-12T18:20:57.729Z,6.25
2023-03-12T18:23:25.980Z,8.43
2023-03-12T18:25:57.310Z,7.10
2023-03-12T18:28:26.509Z,5.93
2023-03-12T18:30:55.160Z,5.93
2023-03-12T18:33:28.098Z,8.10
2023-03-12T18:35:57.778Z,6.32
2023-03-12T18:38:26.803Z,8.48
2023-03-12T18:41:11.190Z,8.75
2023-03-12T18:43:40.935Z,10.45
2023-03-12T18:46:28.741Z,10.68
2023-03-12T18:48:58.342Z,12.30
2023-03-12T18:51:28.117Z,15.95
2023-03-12T18:53:57.095Z,23.85
2023-03-12T18:56:26.678Z,25.40
2023-03-12T18:58:59.555Z,29.10
2023-03-12T19:01:30.778Z,30.83
2023-03-12T19:03:59.032Z,31.92
2023-03-12T19:06:29.667Z,27.05
2023-03-12T19:09:01.890Z,33.88
2023-03-12T19:11:30.666Z,31.83
2023-03-12T19:14:03.864Z,38.10
2023-03-12T19:16:33.034Z,40.58
2023-03-12T19:19:02.220Z,35.55
2023-03-12T19:21:32.185Z,35.42
2023-03-12T19:24:01.502Z,38.88
2023-03-12T19:26:35.581Z,40.85
2023-03-12T19:29:09.829Z,47.22
2023-03-12T19:31:39.189Z,47.67
2023-03-12T19:34:10.226Z,49.40
2023-03-12T19:36:39.494Z,58.83
2023-03-12T19:39:15.249Z,58.83
2023-03-12T19:41:50.011Z,66.00
2023-03-12T19:44:19.730Z,57.80
2023-03-12T19:46:48.855Z,57.45
2023-03-12T19:49:17.536Z,51.50
2023-03-12T19:51:46.726Z,48.15
2023-03-12T19:54:16.047Z,41.55
2023-03-12T19:56:44.804Z,36.13
2023-03-12T19:59:32.064Z,36.65
2023-03-12T20:02:02.224Z,37.25
2023-03-12T20:04:31.856Z,35.38
2023-03-12T20:07:00.684Z,35.67
2023-03-12T20:09:29.608Z,30.73
2023-03-12T20:11:58.870Z,36.42
2023-03-12T20:14:29.007Z,33.58
2023-03-12T20:16:58.135Z,33.55
2023-03-12T20:19:27.116Z,34.88
2023-03-12T20:21:58.115Z,32.78
2023-03-12T20:24:29.692Z,32.70
2023-03-12T20:26:58.842Z,31.00
2023-03-12T20:29:28.326Z,32.08
2023-03-12T20:31:58.439Z,31.25
2023-03-12T20:34:29.531Z,26.52
2023-03-12T20:36:59.007Z,25.77
2023-03-12T20:39:28.421Z,28.38
2023-03-12T20:41:56.847Z,25.30
2023-03-12T20:44:27.680Z,21.27
2023-03-12T20:46:57.277Z,21.85
2023-03-12T20:49:28.851Z,22.60
2023-03-12T20:51:57.099Z,24.08
2023-03-12T20:54:28.081Z,20.12
2023-03-12T20:56:55.867Z,22.37
2023-03-12T20:59:24.461Z,20.12
2023-03-12T21:01:53.236Z,21.05
2023-03-12T21:04:22.130Z,19.77
2023-03-12T21:06:52.107Z,20.92
2023-03-12T21:09:22.656Z,21.67
2023-03-12T21:11:51.405Z,22.45
2023-03-12T21:14:19.763Z,22.48
2023-03-12T21:16:51.079Z,24.85
2023-03-12T21:19:19.456Z,25.40
2023-03-12T21:21:47.908Z,26.75
2023-03-12T21:24:15.546Z,25.33
2023-03-12T21:26:43.061Z,26.08
2023-03-12T21:29:11.928Z,28.27
2023-03-12T21:31:39.603Z,25.70
2023-03-12T21:34:09.379Z,23.60
2023-03-12T21:36:37.864Z,22.35
2023-03-12T21:39:06.041Z,21.33
2023-03-12T21:41:33.530Z,20.45
2023-03-12T21:44:02.360Z,20.42
2023-03-12T21:46:30.850Z,20.83
2023-03-12T21:48:59.094Z,18.80
2023-03-12T21:51:26.955Z,18.90
2023-03-12T21:53:58.229Z,21.80
2023-03-12T21:56:30.281Z,18.35
2023-03-12T21:58:58.257Z,19.42
2023-03-12T22:01:26.096Z,21.12
2023-03-12T22:03:53.982Z,19.65
2023-03-12T22:06:21.498Z,21.45
2023-03-12T22:08:49.352Z,16.70
2023-03-12T22:11:17.093Z,23.50
2023-03-12T22:13:44.708Z,19.70
2023-03-12T22:16:13.708Z,18.17
2023-03-12T22:18:47.818Z,20.60
2023-03-12T22:21:18.901Z,20.08
2023-03-12T22:23:53.727Z,18.48
2023-03-12T22:26:22.507Z,17.02
2023-03-12T22:28:52.043Z,16.33
2023-03-12T22:31:24.349Z,15.57
2023-03-12T22:33:52.174Z,20.70
2023-03-12T22:36:20.452Z,15.93
2023-03-12T22:38:47.907Z,19.17
2023-03-12T22:41:15.592Z,17.62
2023-03-12T22:43:43.440Z,17.05
2023-03-12T22:46:11.263Z,19.02
2023-03-12T22:48:38.981Z,16.27
2023-03-12T22:51:06.587Z,18.70
2023-03-12T22:53:34.208Z,17.45
2023-03-12T22:56:07.244Z,16.35
2023-03-12T22:58:34.636Z,16.83
2023-03-12T23:01:11.084Z,15.68
2023-03-12T23:03:39.929Z,15.00
2023-03-12T23:06:16.315Z,15.20
2023-03-12T23:08:46.141Z,16.95
2023-03-12T23:11:15.918Z,17.90
2023-03-12T23:13:44.901Z,16.48
2023-03-12T23:16:15.134Z,17.23
2023-03-12T23:18:43.448Z,17.52
2023-03-12T23:21:13.437Z,18.23
2023-03-12T23:23:43.555Z,15.55
2023-03-12T23:26:19.908Z,16.95
2023-03-12T23:31:16.106Z,15.07
2023-03-12T23:33:44.075Z,16.25
2023-03-12T23:36:14.568Z,16.15
2023-03-12T23:38:42.780Z,13.50
2023-03-12T23:41:14.706Z,15.27
2023-03-12T23:43:42.840Z,17.40
2023-03-12T23:46:11.235Z,15.20
2023-03-12T23:48:39.151Z,14.45
2023-03-12T23:51:14.992Z,14.02
2023-03-12T23:53:43.770Z,16.12
2023-03-12T23:56:16.615Z,16.27
2023-03-12T23:58:44.805Z,13.27
